Flight Track Log - Related Links

Times and Time Zones

All times are in EDT time to prevent confusion due to time zone crossing. See the AAL297 flight status page for this flight to view local times or setup timezone preferences in your user account.

Time Position Orientation Groundspeed Altitude Reporting Facility
EDT Latitude Longitude Course Direction KTS MPH feet Rate Location/Type
Sat 02:35:27 PM 32.9220 -97.0480 359° North 173 199 2,200  Level FlightAware ADS-B
Sat 02:35:52 PM 32.9440 -97.0530 349° North 211 243 3,000 2,291 Climbing FlightAware ADS-B
Sat 02:36:22 PM 32.9730 -97.0650 341° North 236 272 4,300 3,164 Climbing FlightAware ADS-B
Sat 02:36:47 PM 32.9990 -97.0800 334° Northwest 242 278 5,900 3,600 Climbing FlightAware ADS-B
Sat 02:36:57 PM 33.0050 -97.0900 306° West 244 281 6,400 3,400 Climbing FlightAware ADS-B
Sat 02:37:17 PM 33.0090 -97.1160 280° West 248 285 7,600 3,733 Climbing FlightAware ADS-B
Sat 02:37:42 PM 33.0060 -97.1530 264° West 252 290 9,200 2,314 Climbing FlightAware ADS-B
Sat 02:38:27 PM 32.9990 -97.2210 263° West 317 365 10,300 1,271 Climbing FlightAware ADS-B
Sat 02:39:07 PM 32.9840 -97.2910 256° West 370 426 11,000 2,188 Climbing FlightAware ADS-B
Sat 02:39:52 PM 32.9590 -97.3810 252° West 376 433 13,400 3,247 Climbing FlightAware ADS-B
Sat 02:40:32 PM 32.9380 -97.4580 252° West 378 435 15,600 3,247 Climbing FlightAware ADS-B
Sat 02:41:17 PM 32.9150 -97.5460 253° West 377 434 18,000 2,965 Climbing FlightAware ADS-B
Sat 02:41:57 PM 32.8940 -97.6230 252° West 380 437 19,800 2,475 Climbing FlightAware ADS-B
Sat 02:42:37 PM 32.8720 -97.7020 252° West 390 449 21,300 2,329 Climbing FlightAware ADS-B
Sat 02:43:22 PM 32.8620 -97.8110 264° West 402 463 23,100 2,118 Climbing FlightAware ADS-B
Sat 02:44:02 PM 32.8620 -97.8920 270° West 411 473 24,300 1,768 Climbing FlightAware ADS-B
Sat 02:44:57 PM 32.8610 -98.0190 269° West 421 484 25,900 1,980 Climbing FlightAware ADS-B
Sat 02:45:42 PM 32.8600 -98.1170 269° West 417 480 27,600 2,240 Climbing FlightAware ADS-B
Sat 02:46:12 PM 32.8610 -97.9470 90° East 423 487 28,700 2,400 Climbing FlightAware ADS-B
Sat 02:47:07 PM 32.8570 -98.3170 269° West 406 467 31,000 2,084 Climbing FlightAware ADS-B
Sat 02:47:47 PM 32.8560 -98.4070 269° West 413 475 32,000 750 Climbing FlightAware ADS-B
Sat 02:48:27 PM 32.8550 -98.4960 269° West 417 480 32,000 1,059 Level FlightAware ADS-B
Sat 02:49:12 PM 32.8530 -98.6020 269° West 406 467 33,500 2,047 Climbing FlightAware ADS-B
Sat 02:49:52 PM 32.8520 -98.6910 269° West 399 459 34,900 1,765 Climbing FlightAware ADS-B
Sat 02:50:37 PM 32.8500 -98.7880 269° West 398 458 36,000 1,482 Climbing FlightAware ADS-B
Sat 02:51:17 PM 32.8490 -98.8750 269° West 396 456 37,000 1,350 Climbing FlightAware ADS-B
Sat 02:51:57 PM 32.8470 -98.9640 268° West 396 456 37,800 750 Climbing FlightAware ADS-B
Sat 02:52:37 PM 32.8460 -99.0480 269° West 395 455 38,000 150 Climbing FlightAware ADS-B
Sat 02:53:17 PM 32.8440 -99.1340 268° West 393 452 38,000  Level FlightAware ADS-B
Sat 02:54:02 PM 32.8430 -99.2330 269° West 393 452 38,000  Level FlightAware ADS-B
Sat 02:54:47 PM 32.8410 -99.3300 269° West 395 455 38,000  Level FlightAware ADS-B
Sat 02:55:27 PM 32.8390 -99.4180 268° West 396 456 38,000  Level FlightAware ADS-B
Sat 02:56:12 PM 32.8370 -99.5160 269° West 396 456 38,000  Level FlightAware ADS-B
Sat 02:56:52 PM 32.8390 -99.6000 272° West 397 457 38,000  Level FlightAware ADS-B
Sat 02:57:32 PM 32.8640 -99.6820 290° West 404 465 38,000  Level FlightAware ADS-B
Sat 02:58:17 PM 32.8970 -99.7690 294° West 405 466 38,000  Level FlightAware ADS-B
Sat 02:58:52 PM 32.9260 -99.8440 295° West 405 466 38,000  Level FlightAware ADS-B
Sat 02:59:37 PM 32.9570 -99.9250 295° West 405 466 38,000  Level FlightAware ADS-B
Sat 03:00:17 PM 32.9830 -99.9940 294° West 405 466 38,000  Level FlightAware ADS-B
Sat 03:00:57 PM 33.0080 -100.0640 293° West 405 466 38,000  Level FlightAware ADS-B
Sat 03:01:47 PM 33.0410 -100.1510 294° West 405 466 38,000  Level FlightAware ADS-B
Sat 03:02:27 PM 33.0670 -100.2200 294° West 405 466 38,000  Level FlightAware ADS-B
Sat 03:03:07 PM 33.0930 -100.2900 294° West 405 466 38,000  Level FlightAware ADS-B
Sat 03:03:47 PM 33.1190 -100.3590 294° West 405 466 38,000  Level FlightAware ADS-B
Sat 03:04:27 PM 33.1450 -100.4280 294° West 405 466 38,000  Level FlightAware ADS-B
Sat 03:05:17 PM 33.1770 -100.5150 294° West 405 466 38,000  Level FlightAware ADS-B
Sat 03:05:57 PM 33.2030 -100.5850 294° West 405 466 38,000  Level FlightAware ADS-B
Sat 03:06:37 PM 33.2290 -100.6540 294° West 405 466 38,000  Level FlightAware ADS-B
Sat 03:07:17 PM 33.2550 -100.7240 294° West 405 466 38,000  Level FlightAware ADS-B
Sat 03:07:57 PM 33.2810 -100.7940 294° West 405 466 38,000  Level FlightAware ADS-B
Sat 03:08:47 PM 33.3130 -100.8810 294° West 405 466 38,000  Level FlightAware ADS-B
Sat 03:09:30 PM 33.3811 -101.1447 294° West 401 461 38,000  Level Fort Worth Center
Sat 03:10:30 PM 33.4164 -101.2881 286° West 401 461 38,000  Level Fort Worth Center
Sat 03:11:30 PM 33.4397 -101.4086 283° West 406 467 38,000  Level Fort Worth Center
Sat 03:12:30 PM 33.4747 -101.5497 287° West 411 473 38,000  Level Fort Worth Center
Sat 03:13:31 PM 33.5078 -101.6833 287° West 411 473 38,000  Level Fort Worth Center
Sat 03:14:30 PM 33.5367 -101.8142 285° West 411 473 38,000  Level Fort Worth Center
Sat 03:15:30 PM 33.5675 -101.9431 286° West 411 473 38,000  Level Fort Worth Center
Sat 03:16:30 PM 33.5919 -102.0764 282° West 411 473 38,000  Level Fort Worth Center
Sat 03:17:30 PM 33.6222 -102.2075 286° West 411 473 38,000  Level Fort Worth Center
Sat 03:18:30 PM 33.6528 -102.3389 286° West 411 473 38,000  Level Fort Worth Center
Sat 03:19:31 PM 33.6808 -102.4703 284° West 411 473 38,000  Level Fort Worth Center
Sat 03:21:20 PM 33.7342 -102.6933 286° West 407 468 38,000  Level Albuquerque Center
Sat 03:22:22 PM 33.7625 -102.8256 284° West 410 472 38,000  Level Albuquerque Center
Sat 03:23:23 PM 33.7925 -102.9592 285° West 414 476 38,000  Level Albuquerque Center
Sat 03:24:25 PM 33.8208 -103.0933 284° West 414 476 38,000  Level Albuquerque Center
Sat 03:25:27 PM 33.8564 -103.2539 285° West 415 478 38,000  Level Albuquerque Center
Sat 03:26:28 PM 33.8847 -103.3919 284° West 422 486 38,000  Level Albuquerque Center
Sat 03:27:30 PM 33.9133 -103.5281 284° West 422 486 38,000  Level Albuquerque Center
Sat 03:28:32 PM 33.9439 -103.6750 284° West 423 487 38,000  Level Albuquerque Center
Sat 03:29:33 PM 33.9753 -103.8250 284° West 429 494 38,000  Level Albuquerque Center
Sat 03:30:35 PM 34.0044 -103.9650 284° West 421 484 38,000  Level Albuquerque Center
Sat 03:31:37 PM 34.0336 -104.1031 284° West 420 483 38,000  Level Albuquerque Center
Sat 03:32:38 PM 34.0628 -104.2428 284° West 424 488 38,000  Level Albuquerque Center
Sat 03:33:40 PM 34.0908 -104.3842 284° West 427 491 38,000  Level Albuquerque Center
Sat 03:34:42 PM 34.1192 -104.5222 284° West 423 487 38,000  Level Albuquerque Center
Sat 03:35:43 PM 34.1478 -104.6614 284° West 422 486 38,000  Level Albuquerque Center
Sat 03:36:45 PM 34.1767 -104.8028 284° West 426 490 38,000  Level Albuquerque Center
Sat 03:37:46 PM 34.2044 -104.9436 283° West 426 490 38,000  Level Albuquerque Center
Sat 03:38:48 PM 34.2322 -105.0850 283° West 427 491 38,000  Level Albuquerque Center
Sat 03:39:50 PM 34.2608 -105.2264 284° West 428 493 38,000  Level Albuquerque Center
Sat 03:45:02 PM 34.4050 -105.9640 284° West 430 495 38,000  Level FlightAware ADS-B
Sat 03:45:52 PM 34.4290 -106.0870 283° West 431 496 38,000  Level FlightAware ADS-B
Sat 03:46:32 PM 34.4460 -106.1810 282° West 432 497 38,000  Level FlightAware ADS-B
Sat 03:47:17 PM 34.4660 -106.2880 283° West 432 497 38,000  Level FlightAware ADS-B
Sat 03:47:57 PM 34.4840 -106.3820 283° West 434 499 38,000  Level FlightAware ADS-B
Sat 03:48:37 PM 34.5000 -106.4730 282° West 435 501 38,000  Level FlightAware ADS-B
Sat 03:49:22 PM 34.5210 -106.5850 283° West 436 502 38,000  Level FlightAware ADS-B
Sat 03:50:02 PM 34.5380 -106.6790 282° West 437 503 38,000  Level FlightAware ADS-B
Sat 03:50:42 PM 34.5550 -106.7750 282° West 437 503 38,000  Level FlightAware ADS-B
Sat 03:51:27 PM 34.5740 -106.8820 282° West 437 503 38,000  Level FlightAware ADS-B
Sat 03:52:07 PM 34.5920 -106.9810 282° West 436 502 38,000  Level FlightAware ADS-B
Sat 03:52:52 PM 34.6110 -107.0860 282° West 435 501 38,000  Level FlightAware ADS-B
Sat 03:53:32 PM 34.6280 -107.1820 282° West 435 501 38,000  Level FlightAware ADS-B
Sat 03:54:12 PM 34.6450 -107.2770 282° West 435 501 38,000  Level FlightAware ADS-B
Sat 03:54:57 PM 34.6640 -107.3870 282° West 436 502 38,000  Level FlightAware ADS-B
Sat 03:55:37 PM 34.6800 -107.4810 282° West 436 502 38,000  Level FlightAware ADS-B
Sat 03:56:22 PM 34.6980 -107.5830 282° West 436 502 38,000  Level FlightAware ADS-B
Sat 03:57:02 PM 34.7160 -107.6850 282° West 437 503 38,000  Level FlightAware ADS-B
Sat 03:57:47 PM 34.7340 -107.7920 282° West 439 505 38,000  Level FlightAware ADS-B
Sat 03:58:27 PM 34.7510 -107.8910 282° West 439 505 38,000  Level FlightAware ADS-B
Sat 03:59:07 PM 34.7680 -107.9880 282° West 441 507 38,000  Level FlightAware ADS-B
Sat 03:59:52 PM 34.7850 -108.0900 281° West 442 509 38,000  Level FlightAware ADS-B
Sat 04:00:32 PM 34.8010 -108.1850 282° West 441 507 38,000  Level FlightAware ADS-B
Sat 04:01:17 PM 34.8210 -108.3040 282° West 442 509 38,000  Level FlightAware ADS-B
Sat 04:02:07 PM 34.8390 -108.4150 281° West 442 509 38,000  Level FlightAware ADS-B
Sat 04:02:52 PM 34.8580 -108.5290 282° West 446 513 38,000  Level FlightAware ADS-B
Sat 04:03:37 PM 34.8780 -108.6480 282° West 449 517 38,000  Level FlightAware ADS-B
Sat 04:04:12 PM 34.8900 -108.7240 281° West 449 517 38,000  Level FlightAware ADS-B
Sat 04:04:52 PM 34.9030 -108.8080 281° West 449 517 38,000  Level FlightAware ADS-B
Sat 04:05:42 PM 34.9200 -108.9140 281° West 449 517 38,000  Level FlightAware ADS-B
Sat 04:06:22 PM 34.9340 -108.9980 282° West 449 517 38,000  Level FlightAware ADS-B
Sat 04:07:02 PM 34.9590 -109.1510 281° West 455 524 38,000  Level FlightAware ADS-B
Sat 04:07:42 PM 34.9730 -109.2370 281° West 455 524 38,000  Level FlightAware ADS-B
Sat 04:08:22 PM 34.9870 -109.3230 281° West 455 524 38,000  Level FlightAware ADS-B
Sat 04:09:12 PM 35.0040 -109.4300 281° West 455 524 38,000  Level FlightAware ADS-B
Sat 04:09:52 PM 35.0170 -109.5160 280° West 455 524 38,000  Level FlightAware ADS-B
Sat 04:10:32 PM 35.0310 -109.6010 281° West 455 524 38,000  Level FlightAware ADS-B
Sat 04:11:12 PM 35.0450 -109.6870 281° West 455 524 38,000  Level FlightAware ADS-B
Sat 04:11:52 PM 35.0580 -109.7730 280° West 455 524 38,000  Level FlightAware ADS-B
Sat 04:12:42 PM 35.0750 -109.8800 281° West 455 524 38,000  Level FlightAware ADS-B
Sat 04:13:22 PM 35.0890 -109.9660 281° West 455 524 38,000  Level FlightAware ADS-B
Sat 04:14:02 PM 35.1030 -110.0520 281° West 455 524 38,000  Level FlightAware ADS-B
Sat 04:14:42 PM 35.1160 -110.1380 280° West 455 524 38,000  Level FlightAware ADS-B
Sat 04:15:22 PM 35.1300 -110.2240 281° West 455 524 38,000  Level FlightAware ADS-B
Sat 04:16:12 PM 35.1470 -110.3310 281° West 455 524 38,000  Level FlightAware ADS-B
Sat 04:18:47 PM 34.8260 -110.9840 239° Southwest 456 525 38,000  Level FlightAware ADS-B
Sat 04:19:37 PM 34.8160 -111.1040 264° West 455 524 38,000  Level FlightAware ADS-B
Sat 04:20:27 PM 34.8060 -111.2380 265° West 454 522 38,000  Level FlightAware ADS-B
Sat 04:21:07 PM 34.7980 -111.3390 265° West 454 522 38,000  Level FlightAware ADS-B
Sat 04:21:47 PM 34.7890 -111.4400 264° West 453 521 38,000  Level FlightAware ADS-B
Sat 04:22:27 PM 34.7810 -111.5400 264° West 453 521 38,000  Level FlightAware ADS-B
Sat 04:23:27 PM 34.7680 -111.6940 264° West 452 520 38,000  Level FlightAware ADS-B
Sat 04:24:07 PM 34.7590 -111.7920 264° West 452 520 38,000  Level FlightAware ADS-B
Sat 04:25:02 PM 34.7460 -111.9360 264° West 453 521 38,000  Level FlightAware ADS-B
Sat 04:25:42 PM 34.7320 -112.0330 260° West 451 519 38,000  Level FlightAware ADS-B
Sat 04:26:27 PM 34.7150 -112.1400 259° West 451 519 38,000  Level FlightAware ADS-B
Sat 04:27:07 PM 34.7010 -112.2440 261° West 451 519 38,000  Level FlightAware ADS-B
Sat 04:27:52 PM 34.6850 -112.3550 260° West 450 518 38,000  Level FlightAware ADS-B
Sat 04:28:32 PM 34.6700 -112.4580 260° West 449 517 38,000  Level FlightAware ADS-B
Sat 04:29:17 PM 34.6540 -112.5640 260° West 448 516 38,000  Level FlightAware ADS-B
Sat 04:29:57 PM 34.6390 -112.6610 259° West 449 517 38,000  Level FlightAware ADS-B
Sat 04:30:37 PM 34.6230 -112.7610 259° West 450 518 38,000  Level FlightAware ADS-B
Sat 04:31:22 PM 34.6050 -112.8790 260° West 451 519 38,000  Level FlightAware ADS-B
Sat 04:31:57 PM 34.5910 -112.9630 259° West 450 518 38,000  Level FlightAware ADS-B
Sat 04:32:47 PM 34.5720 -113.0860 259° West 450 518 38,000  Level FlightAware ADS-B
Sat 04:33:27 PM 34.5570 -113.1810 259° West 449 517 38,000  Level FlightAware ADS-B
Sat 04:34:07 PM 34.5400 -113.2840 259° West 450 518 38,000  Level FlightAware ADS-B
Sat 04:34:52 PM 34.5220 -113.3970 259° West 449 517 38,000  Level FlightAware ADS-B
Sat 04:35:32 PM 34.5060 -113.4960 259° West 448 516 38,000  Level FlightAware ADS-B
Sat 04:36:17 PM 34.4880 -113.6050 259° West 448 516 38,000  Level FlightAware ADS-B
Sat 04:36:52 PM 34.4750 -113.6850 259° West 448 516 38,000  Level FlightAware ADS-B
Sat 04:37:37 PM 34.4570 -113.7950 259° West 447 514 38,000  Level FlightAware ADS-B
Sat 04:38:22 PM 34.4400 -113.9160 260° West 448 516 38,000  Level FlightAware ADS-B
Sat 04:39:02 PM 34.4270 -114.0120 261° West 448 516 38,000  Level FlightAware ADS-B
Sat 04:39:42 PM 34.4140 -114.1090 261° West 449 517 38,000  Level FlightAware ADS-B
Sat 04:40:27 PM 34.3980 -114.2210 260° West 448 516 38,000  Level FlightAware ADS-B
Sat 04:41:02 PM 34.3850 -114.3100 260° West 448 516 38,000  Level FlightAware ADS-B
Sat 04:41:47 PM 34.3700 -114.4180 260° West 448 516 38,000  Level FlightAware ADS-B
Sat 04:42:32 PM 34.3530 -114.5330 260° West 447 514 38,000  Level FlightAware ADS-B
Sat 04:43:12 PM 34.3390 -114.6300 260° West 447 514 38,000  Level FlightAware ADS-B
Sat 04:43:57 PM 34.3250 -114.7260 260° West 447 514 38,000  Level FlightAware ADS-B
Sat 04:44:37 PM 34.3090 -114.8370 260° West 447 514 38,000  Level FlightAware ADS-B
Sat 04:45:22 PM 34.2940 -114.9430 260° West 448 516 38,000  Level FlightAware ADS-B
Sat 04:46:02 PM 34.2780 -115.0470 259° West 449 517 38,000  Level FlightAware ADS-B
Sat 04:46:42 PM 34.2640 -115.1450 260° West 450 518 38,000  Level FlightAware ADS-B
Sat 04:47:27 PM 34.2480 -115.2510 260° West 450 518 38,000  Level FlightAware ADS-B
Sat 04:48:07 PM 34.2330 -115.3530 260° West 451 519 38,000  Level FlightAware ADS-B
Sat 04:48:52 PM 34.2150 -115.4680 259° West 452 520 38,000  Level FlightAware ADS-B
Sat 04:49:32 PM 34.2000 -115.5690 260° West 453 521 38,000  Level FlightAware ADS-B
Sat 04:50:17 PM 34.1840 -115.6720 259° West 453 521 38,000  Level FlightAware ADS-B
Sat 04:50:57 PM 34.1680 -115.7750 259° West 453 521 38,000  Level FlightAware ADS-B
Sat 04:51:37 PM 34.1520 -115.8770 259° West 453 521 38,000 -71 Level FlightAware ADS-B
Sat 04:52:22 PM 34.1350 -115.9890 260° West 452 520 37,900 -1,059 Descending FlightAware ADS-B
Sat 04:53:02 PM 34.1200 -116.0830 259° West 453 521 36,500 -2,471 Descending FlightAware ADS-B
Sat 04:53:47 PM 34.1020 -116.1970 259° West 452 520 34,400 -3,388 Descending FlightAware ADS-B
Sat 04:54:27 PM 34.0860 -116.2960 259° West 467 537 31,700 -3,900 Descending FlightAware ADS-B
Sat 04:55:07 PM 34.0690 -116.4020 259° West 473 544 29,200 -3,459 Descending FlightAware ADS-B
Sat 04:55:52 PM 34.0500 -116.5200 259° West 464 534 26,800 -3,459 Descending FlightAware ADS-B
Sat 04:56:32 PM 34.0330 -116.6230 259° West 465 535 24,300 -3,600 Descending FlightAware ADS-B
Sat 04:57:17 PM 34.0150 -116.7320 259° West 462 532 21,700 -3,459 Descending FlightAware ADS-B
Sat 04:57:57 PM 33.9990 -116.8340 259° West 457 526 19,400 -3,075 Descending FlightAware ADS-B
Sat 04:58:37 PM 33.9830 -116.9310 259° West 442 509 17,600 -1,765 Descending FlightAware ADS-B
Sat 04:59:22 PM 33.9650 -117.0360 258° West 396 456 16,900 -565 Descending FlightAware ADS-B
Sat 05:00:02 PM 33.9530 -117.1190 260° West 349 402 16,800 -141 Descending FlightAware ADS-B
Sat 05:00:47 PM 33.9450 -117.2010 263° West 334 384 16,700 -635 Descending FlightAware ADS-B
Sat 05:01:27 PM 33.9390 -117.2750 264° West 330 380 15,900 -1,200 Descending FlightAware ADS-B
Sat 05:02:07 PM 33.9330 -117.3470 264° West 328 377 15,100 -1,200 Descending FlightAware ADS-B
Sat 05:02:22 PM 33.9350 -117.3760 275° West 320 368 14,800 -1,100 Descending FlightAware ADS-B
Sat 05:03:07 PM 33.9590 -117.4480 292° West 314 361 14,000 -1,271 Descending FlightAware ADS-B
Sat 05:03:47 PM 33.9830 -117.5140 294° West 320 368 13,000 -1,275 Descending FlightAware ADS-B
Sat 05:04:27 PM 34.0050 -117.5770 293° West 315 362 12,300 -1,129 Descending FlightAware ADS-B
Sat 05:05:12 PM 34.0080 -117.6560 273° West 305 351 11,400 -1,341 Descending FlightAware ADS-B
Sat 05:05:52 PM 34.0010 -117.7240 263° West 301 346 10,400 -1,543 Descending FlightAware ADS-B
Sat 05:06:22 PM 33.9960 -117.7730 263° West 300 345 9,600 -1,467 Descending FlightAware ADS-B
Sat 05:06:37 PM 33.9940 -117.7960 264° West 299 344 9,300 -900 Descending FlightAware ADS-B
Sat 05:07:02 PM 33.9890 -117.8390 262° West 283 326 9,000 -600 Descending FlightAware ADS-B
Sat 05:07:17 PM 33.9870 -117.8600 263° West 271 312 8,900 -533 Descending FlightAware ADS-B
Sat 05:07:47 PM 33.9830 -117.9030 264° West 255 293 8,600 -982 Descending FlightAware ADS-B
Sat 05:08:12 PM 33.9790 -117.9400 263° West 253 291 8,000 -1,500 Descending FlightAware ADS-B
Sat 05:08:27 PM 33.9770 -117.9600 263° West 252 290 7,600 -1,467 Descending FlightAware ADS-B
Sat 05:08:57 PM 33.9730 -118.0020 263° West 252 290 6,900 -1,350 Descending FlightAware ADS-B
Sat 05:09:07 PM 33.9710 -118.0140 259° West 252 290 6,700 -1,200 Descending FlightAware ADS-B
Sat 05:09:37 PM 33.9670 -118.0560 263° West 248 285 6,100 -1,000 Descending FlightAware ADS-B
Sat 05:10:07 PM 33.9630 -118.0970 263° West 231 266 5,700 -750 Descending FlightAware ADS-B
Sat 05:10:17 PM 33.9620 -118.1100 265° West 225 259 5,600 -900 Descending FlightAware ADS-B
Sat 05:10:47 PM 33.9580 -118.1440 262° West 201 231 5,100 -1,200 Descending FlightAware ADS-B
Sat 05:11:02 PM 33.9560 -118.1620 262° West 192 221 4,700 -1,867 Descending FlightAware ADS-B
Sat 05:11:32 PM 33.9530 -118.1920 263° West 185 213 3,700 -2,160 Descending FlightAware ADS-B
Sat 05:11:52 PM 33.9510 -118.2120 263° West 185 213 2,900 -1,800 Descending FlightAware ADS-B
Sat 05:12:22 PM 33.9480 -118.2410 263° West 176 203 2,200 -923 Descending FlightAware ADS-B
Sat 05:12:57 PM 33.9460 -118.2590 262° West 176 203 1,900 -300 Descending FlightAware ADS-B
Sat 05:13:22 PM 33.9430 -118.2820 261° West 176 203 1,900 -646 Level FlightAware ADS-B
Sat 05:14:02 PM 33.9400 -118.3200 265° West 151 174 1,200 -1,050 Descending FlightAware ADS-B

Login

Don't have an account? Register now (free) for customized features, flight alerts, and more!